Time;durP1;ratioP1;P1;durP2;ratioP2;P2;SDS_P1;SDS_P2;PMS_P1;PMS_P2;Temp;Humidity;BMP_temperature;BMP_pressure;BME280_temperature;BME280_humidity;BME280_pressure;Samples;Min_cycle;Max_cycle;Signal;HPM_P1;HPM_P2
2023/01/07 00:01:01;;;;;;;5.55;3.90;;;9.00;87.10;;;;;;5093711;28;20517;-65
2023/01/07 00:03:28;;;;;;;7.65;4.95;;;9.00;86.80;;;;;;5095092;28;20713;-64
2023/01/07 00:05:59;;;;;;;6.28;4.85;;;9.00;86.80;;;;;;5095870;28;20196;-65
2023/01/07 00:08:28;;;;;;;7.28;5.85;;;9.00;87.00;;;;;;5095224;28;20640;-65
2023/01/07 00:10:56;;;;;;;10.18;5.00;;;9.10;86.70;;;;;;5095259;28;20547;-65
2023/01/07 00:13:25;;;;;;;6.75;5.00;;;9.00;86.50;;;;;;5095880;28;20186;-64
2023/01/07 00:15:59;;;;;;;5.80;4.22;;;9.00;86.80;;;;;;5095560;28;20192;-65
2023/01/07 00:18:29;;;;;;;7.28;5.65;;;9.00;87.10;;;;;;5075179;28;20220;-64
2023/01/07 00:20:57;;;;;;;9.02;5.40;;;9.00;87.10;;;;;;5075331;28;20247;-66
2023/01/07 00:23:24;;;;;;;9.75;5.03;;;9.00;87.00;;;;;;5095226;28;20241;-64
2023/01/07 00:25:52;;;;;;;7.10;4.97;;;9.00;86.80;;;;;;5095547;28;20276;-66
2023/01/07 00:28:19;;;;;;;5.95;5.22;;;9.00;86.60;;;;;;5094886;28;20195;-64
2023/01/07 00:30:49;;;;;;;10.55;6.88;;;9.00;86.50;;;;;;5095193;28;20192;-64
2023/01/07 00:33:20;;;;;;;10.90;5.57;;;9.00;86.60;;;;;;5095150;28;20188;-65
2023/01/07 00:35:48;;;;;;;7.00;4.10;;;9.00;86.70;;;;;;5095491;28;20558;-65
2023/01/07 00:38:18;;;;;;;6.28;4.32;;;9.00;86.50;;;;;;5094946;28;20188;-64
2023/01/07 00:40:48;;;;;;;5.38;4.03;;;8.90;86.30;;;;;;5095373;28;20192;-65
2023/01/07 00:43:17;;;;;;;5.70;4.03;;;8.90;86.40;;;;;;5094432;28;20262;-64
2023/01/07 00:45:44;;;;;;;5.72;4.05;;;8.80;87.50;;;;;;5074865;28;20189;-64
2023/01/07 00:48:12;;;;;;;3.42;3.05;;;8.80;87.00;;;;;;5074798;28;20563;-65
2023/01/07 00:50:40;;;;;;;5.00;4.18;;;8.90;86.20;;;;;;5088993;28;20195;-64
2023/01/07 00:53:07;;;;;;;5.40;4.32;;;8.90;86.20;;;;;;5094805;28;20199;-65
2023/01/07 00:55:35;;;;;;;4.53;3.90;;;8.90;85.70;;;;;;5094405;28;20283;-65
2023/01/07 00:58:02;;;;;;;5.63;4.40;;;8.80;85.80;;;;;;5094917;28;20219;-64
2023/01/07 01:00:30;;;;;;;6.55;4.22;;;8.80;85.70;;;;;;5094231;28;20189;-64
2023/01/07 01:02:58;;;;;;;6.28;3.55;;;8.80;85.80;;;;;;5094663;28;20217;-64
2023/01/07 01:05:26;;;;;;;5.95;4.13;;;8.80;86.20;;;;;;5094197;28;20189;-64
2023/01/07 01:07:54;;;;;;;4.13;3.20;;;8.80;86.20;;;;;;5094662;28;20262;-64
2023/01/07 01:10:22;;;;;;;5.00;4.00;;;8.70;86.40;;;;;;5094213;28;20257;-65
2023/01/07 01:12:50;;;;;;;4.97;4.05;;;8.80;86.10;;;;;;5094438;28;20205;-64
2023/01/07 01:15:17;;;;;;;5.40;3.60;;;8.80;85.70;;;;;;5094145;28;20189;-64
2023/01/07 01:17:44;;;;;;;4.03;3.10;;;8.80;85.70;;;;;;5094460;28;20228;-65
2023/01/07 01:20:15;;;;;;;4.38;3.20;;;8.70;85.60;;;;;;5093844;28;20611;-65
2023/01/07 01:22:43;;;;;;;5.53;4.10;;;8.70;86.70;;;;;;5094346;28;20216;-64
2023/01/07 01:25:12;;;;;;;6.60;3.33;;;8.70;85.80;;;;;;5093878;28;20193;-65
2023/01/07 01:27:39;;;;;;;4.57;3.30;;;8.70;85.80;;;;;;5094156;28;20543;-65
2023/01/07 01:30:08;;;;;;;6.15;3.78;;;8.70;85.60;;;;;;5093968;28;20529;-65
2023/01/07 01:32:35;;;;;;;4.43;3.28;;;8.60;85.40;;;;;;5094037;28;20370;-64
2023/01/07 01:35:02;;;;;;;4.53;3.70;;;8.60;85.10;;;;;;5093998;28;20181;-64
2023/01/07 01:37:31;;;;;;;3.78;3.22;;;8.60;85.20;;;;;;5093543;28;21107;-65
2023/01/07 01:40:02;;;;;;;5.22;3.13;;;8.50;85.60;;;;;;5094106;28;20189;-64
2023/01/07 01:42:31;;;;;;;4.00;2.75;;;8.50;85.50;;;;;;5093550;28;20192;-65
2023/01/07 01:45:00;;;;;;;4.32;2.80;;;8.50;85.40;;;;;;5093998;28;20575;-64
2023/01/07 01:47:34;;;;;;;4.20;2.70;;;8.50;85.40;;;;;;5093159;28;20204;-65
2023/01/07 01:50:10;;;;;;;4.90;3.10;;;8.40;85.50;;;;;;5093793;28;20245;-65
2023/01/07 01:52:42;;;;;;;4.30;2.80;;;8.40;85.40;;;;;;5093328;28;20200;-64
2023/01/07 01:55:12;;;;;;;3.42;2.63;;;8.40;85.40;;;;;;5093749;28;20200;-64
2023/01/07 01:57:41;;;;;;;3.85;2.67;;;8.40;85.60;;;;;;5092994;28;20287;-65
2023/01/07 02:00:15;;;;;;;5.35;2.95;;;8.40;85.60;;;;;;5093403;28;20184;-65
2023/01/07 02:02:56;;;;;;;4.00;2.90;;;8.30;85.30;;;;;;5092991;28;20238;-65
2023/01/07 02:05:26;;;;;;;4.15;2.58;;;8.40;85.20;;;;;;5093729;28;20195;-65
2023/01/07 02:07:53;;;;;;;4.65;3.05;;;8.40;85.50;;;;;;5092799;28;20661;-66
2023/01/07 02:10:32;;;;;;;5.38;3.53;;;8.30;84.90;;;;;;5093628;28;20195;-65
2023/01/07 02:13:21;;;;;;;3.60;2.42;;;8.30;85.20;;;;;;5093152;28;20324;-64
2023/01/07 02:15:58;;;;;;;4.40;2.25;;;8.30;84.70;;;;;;5093147;28;20196;-65
2023/01/07 02:18:55;;;;;;;3.40;2.30;;;8.30;84.90;;;;;;5092986;28;20577;-64
2023/01/07 02:21:34;;;;;;;5.03;3.17;;;8.20;84.70;;;;;;5093287;28;20233;-64
2023/01/07 02:24:37;;;;;;;3.70;2.17;;;8.20;84.50;;;;;;5091842;28;20689;-64
2023/01/07 02:27:31;;;;;;;5.00;2.45;;;8.20;84.10;;;;;;5092824;28;20198;-64
2023/01/07 02:30:47;;;;;;;3.15;2.38;;;8.20;84.20;;;;;;5093476;28;20584;-65
2023/01/07 02:33:32;;;;;;;5.30;2.75;;;8.10;84.60;;;;;;5072878;28;20204;-64
2023/01/07 02:36:21;;;;;;;3.85;2.05;;;8.10;84.70;;;;;;5092773;28;20259;-64
2023/01/07 02:39:02;;;;;;;4.32;2.17;;;8.10;84.10;;;;;;5092253;28;20193;-65
2023/01/07 02:41:39;;;;;;;4.07;2.15;;;8.10;83.90;;;;;;5092904;28;20194;-64
2023/01/07 02:44:14;;;;;;;3.45;2.50;;;8.00;84.00;;;;;;5092402;28;20698;-64
2023/01/07 02:46:47;;;;;;;2.85;1.92;;;7.90;84.00;;;;;;5093062;28;20558;-64
2023/01/07 02:49:19;;;;;;;3.95;2.38;;;7.90;83.50;;;;;;5092478;28;20187;-64
2023/01/07 02:51:49;;;;;;;2.90;2.03;;;7.90;83.80;;;;;;5092959;28;20192;-64
2023/01/07 02:54:22;;;;;;;2.88;2.00;;;7.90;83.90;;;;;;5092279;28;20199;-64
2023/01/07 02:57:09;;;;;;;3.00;2.03;;;7.90;83.70;;;;;;5092841;28;20181;-65
2023/01/07 03:00:03;;;;;;;5.70;2.60;;;7.90;83.60;;;;;;5092022;28;20177;-64
2023/01/07 03:02:47;;;;;;;3.35;2.00;;;7.90;83.60;;;;;;5092649;28;20642;-64
2023/01/07 03:05:33;;;;;;;4.55;2.35;;;7.80;83.70;;;;;;5092151;28;20218;-65
2023/01/07 03:08:24;;;;;;;4.78;2.60;;;7.80;83.80;;;;;;5092242;28;20222;-65
2023/01/07 03:10:58;;;;;;;3.30;2.33;;;7.80;83.90;;;;;;5092169;28;20585;-64
2023/01/07 03:13:34;;;;;;;3.30;2.20;;;7.80;83.90;;;;;;5092454;28;20200;-65
2023/01/07 03:16:07;;;;;;;2.60;1.65;;;7.70;84.00;;;;;;5072291;28;20270;-65
2023/01/07 03:18:38;;;;;;;3.83;1.95;;;7.70;83.90;;;;;;5071892;28;20570;-68
2023/01/07 03:21:12;;;;;;;3.88;2.05;;;7.70;83.60;;;;;;5072015;28;20188;-65
2023/01/07 03:23:43;;;;;;;3.67;2.17;;;7.70;83.30;;;;;;5071834;28;20549;-64
2023/01/07 03:26:12;;;;;;;3.15;2.30;;;7.60;83.20;;;;;;5072073;28;20647;-64
2023/01/07 03:28:41;;;;;;;3.33;2.13;;;7.60;83.10;;;;;;5091930;28;20184;-64
2023/01/07 03:31:10;;;;;;;3.80;2.10;;;7.60;83.00;;;;;;5092076;28;20212;-64
2023/01/07 03:33:45;;;;;;;3.28;1.60;;;7.50;83.00;;;;;;5092245;28;20203;-64
2023/01/07 03:36:16;;;;;;;3.30;2.40;;;7.50;82.90;;;;;;5096014;28;20201;-64
2023/01/07 03:38:46;;;;;;;3.33;1.90;;;7.50;82.70;;;;;;5096430;28;20564;-64
2023/01/07 03:42:38;;;;;;;4.95;1.95;;;7.40;82.50;;;;;;5095790;28;20194;-64
2023/01/07 03:43:59;;;;;;;3.10;2.00;;;7.40;82.80;;;;;;5096120;28;20222;-65
2023/01/07 03:46:26;;;;;;;3.20;1.80;;;7.30;82.60;;;;;;5096089;28;20183;-64
2023/01/07 03:48:53;;;;;;;7.88;2.30;;;7.30;82.50;;;;;;5096358;28;20197;-65
2023/01/07 03:51:22;;;;;;;3.13;1.85;;;7.20;82.50;;;;;;5095876;28;20199;-65
2023/01/07 03:53:50;;;;;;;3.72;1.70;;;7.10;82.30;;;;;;5096046;28;20639;-65
2023/01/07 03:56:17;;;;;;;3.55;2.05;;;7.00;82.50;;;;;;5095597;28;20183;-64
2023/01/07 03:58:45;;;;;;;3.20;1.70;;;7.00;82.60;;;;;;5095744;28;20261;-64
2023/01/07 04:01:12;;;;;;;4.00;2.05;;;6.90;82.40;;;;;;5095967;28;20202;-64
2023/01/07 04:03:40;;;;;;;2.58;1.73;;;6.90;82.20;;;;;;5096033;28;20179;-64
2023/01/07 04:06:07;;;;;;;3.40;2.30;;;6.90;82.10;;;;;;5096140;28;20198;-65
2023/01/07 04:08:36;;;;;;;4.43;2.15;;;6.80;81.90;;;;;;5095681;28;20251;-65
2023/01/07 04:11:03;;;;;;;3.35;1.70;;;6.70;82.00;;;;;;5096493;28;20277;-65
2023/01/07 04:13:31;;;;;;;2.95;2.00;;;6.60;82.20;;;;;;5095713;28;20258;-64
2023/01/07 04:15:58;;;;;;;4.55;2.20;;;6.50;83.00;;;;;;5096027;28;20187;-64
2023/01/07 04:18:26;;;;;;;2.58;1.60;;;6.40;83.00;;;;;;5095190;28;20274;-65
2023/01/07 04:20:53;;;;;;;2.85;1.67;;;6.40;83.00;;;;;;5096199;28;20205;-64
2023/01/07 04:23:21;;;;;;;3.03;1.67;;;6.30;83.00;;;;;;5095592;28;20647;-65
2023/01/07 04:25:51;;;;;;;2.35;1.48;;;6.20;83.00;;;;;;5095271;28;20551;-64
2023/01/07 04:28:19;;;;;;;3.30;1.77;;;6.10;83.20;;;;;;5095073;28;20185;-66
2023/01/07 04:30:46;;;;;;;3.00;1.40;;;6.00;83.50;;;;;;5095787;28;20614;-64
2023/01/07 04:33:13;;;;;;;3.38;2.03;;;5.90;84.10;;;;;;5095256;28;20235;-64
2023/01/07 04:35:41;;;;;;;3.30;1.88;;;5.80;84.40;;;;;;5095548;28;20196;-64
2023/01/07 04:38:08;;;;;;;3.53;1.73;;;5.70;84.60;;;;;;5094783;28;20202;-64
2023/01/07 04:40:35;;;;;;;3.30;1.95;;;5.70;84.40;;;;;;5095468;28;20192;-64
2023/01/07 04:43:04;;;;;;;4.38;1.70;;;5.70;84.30;;;;;;5094826;28;20189;-64
2023/01/07 04:45:31;;;;;;;2.90;1.80;;;5.60;84.00;;;;;;5095081;28;20262;-64
2023/01/07 04:47:58;;;;;;;3.10;1.90;;;5.60;83.80;;;;;;5094715;28;20185;-64
2023/01/07 04:50:26;;;;;;;2.75;1.75;;;5.60;83.90;;;;;;5095417;28;20246;-64
2023/01/07 04:52:53;;;;;;;3.08;1.35;;;5.50;84.00;;;;;;5094721;28;20200;-64
2023/01/07 04:55:20;;;;;;;5.00;1.75;;;5.50;84.10;;;;;;5094761;28;20191;-64
2023/01/07 04:57:51;;;;;;;2.53;1.27;;;5.50;84.20;;;;;;5095151;28;20196;-64
2023/01/07 05:00:19;;;;;;;3.40;1.80;;;5.40;84.20;;;;;;5095044;28;20588;-64
2023/01/07 05:02:47;;;;;;;2.28;1.40;;;5.40;84.30;;;;;;5094918;28;20193;-64
2023/01/07 05:05:14;;;;;;;4.82;2.00;;;5.40;84.40;;;;;;5094733;28;20248;-64
2023/01/07 05:07:41;;;;;;;3.00;1.90;;;5.30;84.40;;;;;;5094914;28;20716;-64
2023/01/07 05:10:09;;;;;;;2.83;1.80;;;5.30;84.60;;;;;;5094765;28;20255;-64
2023/01/07 05:12:37;;;;;;;2.75;1.50;;;5.30;84.50;;;;;;5094953;28;20201;-64
2023/01/07 05:15:05;;;;;;;2.80;1.42;;;5.20;84.30;;;;;;5094498;28;20192;-64
2023/01/07 05:17:34;;;;;;;2.40;1.42;;;5.20;84.30;;;;;;5094731;28;20259;-64
2023/01/07 05:20:01;;;;;;;2.75;1.45;;;5.10;84.10;;;;;;5094690;28;20185;-64
2023/01/07 05:22:28;;;;;;;2.50;1.55;;;5.10;84.00;;;;;;5094266;28;20261;-64
2023/01/07 05:24:55;;;;;;;2.40;1.33;;;4.90;84.10;;;;;;5094571;28;20212;-64
2023/01/07 05:27:22;;;;;;;2.80;1.35;;;4.90;84.00;;;;;;5094275;28;20177;-64
2023/01/07 05:29:50;;;;;;;3.15;1.75;;;4.80;84.30;;;;;;5094557;28;20197;-64
2023/01/07 05:32:17;;;;;;;3.88;1.90;;;4.70;84.60;;;;;;5094011;28;20239;-64
2023/01/07 05:34:46;;;;;;;3.53;1.73;;;4.60;85.00;;;;;;5093945;28;20185;-65
2023/01/07 05:37:13;;;;;;;3.10;1.50;;;4.60;85.20;;;;;;5093926;28;20189;-65
2023/01/07 05:39:40;;;;;;;2.17;1.30;;;4.60;85.00;;;;;;5094034;28;20193;-64
2023/01/07 05:42:07;;;;;;;3.13;1.80;;;4.60;85.30;;;;;;5094160;28;20201;-64
2023/01/07 05:44:34;;;;;;;2.22;1.20;;;4.60;85.50;;;;;;5093762;28;20209;-64
2023/01/07 05:47:01;;;;;;;2.70;1.73;;;4.60;85.50;;;;;;5094227;28;20193;-64
2023/01/07 05:49:29;;;;;;;4.35;1.30;;;4.60;85.00;;;;;;5093857;28;20246;-65
2023/01/07 05:51:57;;;;;;;2.83;1.52;;;4.60;84.90;;;;;;5093755;28;20189;-64
2023/01/07 05:54:24;;;;;;;3.25;2.03;;;4.60;84.50;;;;;;5094187;28;20200;-64
2023/01/07 05:56:51;;;;;;;3.03;2.15;;;4.60;84.50;;;;;;5093538;28;20688;-64
2023/01/07 05:59:19;;;;;;;2.53;1.70;;;4.60;84.20;;;;;;5093048;28;20193;-64
2023/01/07 06:01:46;;;;;;;2.63;1.70;;;4.60;84.30;;;;;;5093442;28;20246;-64
2023/01/07 06:04:14;;;;;;;3.95;1.85;;;4.70;84.40;;;;;;5094082;28;20224;-64
2023/01/07 06:06:41;;;;;;;3.85;1.85;;;4.70;83.70;;;;;;5093592;28;20873;-64
2023/01/07 06:09:12;;;;;;;3.20;2.10;;;4.60;83.10;;;;;;5093685;28;20585;-64
2023/01/07 06:11:39;;;;;;;2.60;1.50;;;4.50;83.30;;;;;;5093432;28;20185;-64
2023/01/07 06:14:11;;;;;;;3.83;2.17;;;4.40;83.70;;;;;;5093921;28;20189;-63
2023/01/07 06:16:40;;;;;;;5.38;2.28;;;4.40;83.80;;;;;;5093439;28;20232;-63
2023/01/07 06:19:08;;;;;;;4.22;1.92;;;4.30;83.70;;;;;;5093062;28;20209;-63
2023/01/07 06:21:35;;;;;;;2.25;1.30;;;4.20;83.40;;;;;;5093742;28;20669;-63
2023/01/07 06:24:02;;;;;;;3.20;1.88;;;4.10;84.10;;;;;;5093107;28;20655;-64
2023/01/07 06:26:35;;;;;;;2.30;1.33;;;4.10;84.20;;;;;;5093650;28;20242;-63
2023/01/07 06:29:03;;;;;;;2.58;1.20;;;4.10;84.20;;;;;;5093063;28;20234;-63
2023/01/07 06:31:30;;;;;;;2.20;1.25;;;3.90;84.30;;;;;;5093366;28;20193;-63
2023/01/07 06:33:58;;;;;;;3.72;1.25;;;3.80;84.60;;;;;;5092805;28;20212;-64
2023/01/07 06:36:25;;;;;;;2.50;1.58;;;3.70;85.20;;;;;;5093421;28;20266;-64
2023/01/07 06:38:57;;;;;;;3.33;2.20;;;3.70;84.90;;;;;;5093026;28;20581;-63
2023/01/07 06:41:25;;;;;;;2.80;1.83;;;3.70;85.00;;;;;;5093350;28;20693;-63
2023/01/07 06:43:53;;;;;;;3.20;1.83;;;3.60;85.00;;;;;;5093012;28;20201;-64
2023/01/07 06:46:21;;;;;;;3.85;2.60;;;3.70;85.10;;;;;;5093370;28;20281;-63
2023/01/07 06:48:52;;;;;;;2.78;1.75;;;3.70;84.90;;;;;;5092823;28;20181;-65
2023/01/07 06:51:20;;;;;;;3.95;2.15;;;3.70;84.90;;;;;;5093023;28;20226;-64
2023/01/07 06:53:47;;;;;;;2.53;1.63;;;3.70;84.70;;;;;;5092670;28;20187;-63
2023/01/07 06:56:14;;;;;;;5.57;2.45;;;3.80;85.40;;;;;;5093108;28;20647;-63
2023/01/07 06:58:41;;;;;;;3.47;1.80;;;3.80;84.50;;;;;;5092775;28;20250;-63
2023/01/07 07:01:10;;;;;;;3.25;1.90;;;3.80;85.00;;;;;;5092660;28;20651;-64
2023/01/07 07:03:37;;;;;;;3.17;2.10;;;3.80;84.60;;;;;;5092575;28;20201;-63
2023/01/07 07:06:05;;;;;;;4.78;2.65;;;3.80;84.40;;;;;;5092707;28;20320;-63
2023/01/07 07:08:32;;;;;;;3.03;1.70;;;3.80;84.10;;;;;;5092362;28;20185;-63
2023/01/07 07:11:01;;;;;;;4.65;2.70;;;3.80;83.70;;;;;;5092447;28;20189;-63
2023/01/07 07:13:28;;;;;;;4.50;2.80;;;3.80;83.50;;;;;;5092625;28;20525;-63
2023/01/07 07:15:55;;;;;;;4.55;2.95;;;3.70;83.20;;;;;;5092913;28;20193;-63
2023/01/07 07:18:24;;;;;;;4.20;2.63;;;3.70;83.30;;;;;;5092156;28;20223;-64
2023/01/07 07:20:52;;;;;;;5.03;2.90;;;3.60;83.70;;;;;;5092743;28;20196;-63
2023/01/07 07:23:19;;;;;;;5.93;4.43;;;3.50;83.80;;;;;;5092384;28;20189;-64
2023/01/07 07:25:46;;;;;;;7.28;3.40;;;3.50;84.00;;;;;;5092821;28;20581;-63
2023/01/07 07:28:14;;;;;;;5.00;3.50;;;3.50;84.40;;;;;;5092435;28;20181;-63
2023/01/07 07:30:41;;;;;;;9.18;4.18;;;3.50;84.30;;;;;;5092818;28;20192;-63
2023/01/07 07:33:11;;;;;;;5.82;4.22;;;3.50;84.60;;;;;;5092403;28;20580;-63
2023/01/07 07:35:39;;;;;;;7.00;5.28;;;3.50;84.70;;;;;;5092554;28;20215;-63
2023/01/07 07:38:06;;;;;;;11.98;8.27;;;3.50;85.30;;;;;;5092223;28;20201;-64
2023/01/07 07:40:34;;;;;;;15.57;14.00;;;3.50;85.50;;;;;;5092439;28;20589;-63
2023/01/07 07:43:01;;;;;;;10.35;7.55;;;3.60;86.10;;;;;;5092386;28;20196;-64
2023/01/07 07:45:28;;;;;;;9.73;6.60;;;3.60;85.80;;;;;;5092284;28;20683;-63
2023/01/07 07:47:55;;;;;;;15.40;8.65;;;3.60;85.70;;;;;;5092019;28;20239;-63
2023/01/07 07:50:22;;;;;;;10.30;6.07;;;3.60;86.00;;;;;;5092260;28;20246;-63
2023/01/07 07:52:51;;;;;;;10.45;7.13;;;3.70;85.60;;;;;;5092570;28;20189;-64
2023/01/07 07:55:18;;;;;;;12.82;8.68;;;3.70;86.40;;;;;;5091981;28;20259;-65
2023/01/07 07:57:46;;;;;;;10.88;6.65;;;3.80;86.40;;;;;;5092686;28;20192;-63
2023/01/07 08:00:16;;;;;;;9.57;6.50;;;4.00;85.70;;;;;;5092337;28;20204;-63
2023/01/07 08:02:44;;;;;;;9.43;6.45;;;4.10;85.50;;;;;;5092344;28;20189;-63
2023/01/07 08:05:11;;;;;;;7.40;5.45;;;4.10;84.90;;;;;;5091848;28;20289;-63
2023/01/07 08:07:42;;;;;;;6.68;4.43;;;4.20;85.20;;;;;;5092233;28;20193;-64
2023/01/07 08:10:11;;;;;;;5.78;4.40;;;4.30;84.50;;;;;;5091665;28;20188;-63
2023/01/07 08:12:38;;;;;;;7.55;5.28;;;4.40;83.20;;;;;;5092227;28;20287;-65
2023/01/07 08:15:07;;;;;;;5.03;3.15;;;4.40;82.90;;;;;;5091687;28;20192;-64
2023/01/07 08:17:35;;;;;;;10.07;7.22;;;4.40;82.40;;;;;;5091674;28;20257;-64
2023/01/07 08:20:03;;;;;;;8.52;6.88;;;4.30;82.20;;;;;;5091981;28;20213;-64
2023/01/07 08:22:30;;;;;;;7.95;5.80;;;4.30;82.40;;;;;;5094542;28;20308;-64
2023/01/07 08:24:57;;;;;;;9.95;5.82;;;4.30;82.70;;;;;;5094931;28;20254;-63
2023/01/07 08:27:27;;;;;;;9.98;5.25;;;4.30;83.10;;;;;;5095641;28;20193;-64
2023/01/07 08:29:55;;;;;;;8.32;5.50;;;4.30;83.70;;;;;;5095460;28;20678;-64
2023/01/07 08:32:23;;;;;;;8.85;5.50;;;4.40;84.60;;;;;;5095705;28;20671;-64
2023/01/07 08:34:50;;;;;;;8.50;5.47;;;4.40;83.90;;;;;;5095064;28;20189;-64
2023/01/07 08:37:19;;;;;;;9.63;7.18;;;4.60;84.50;;;;;;5095531;28;20229;-64
2023/01/07 08:39:46;;;;;;;7.78;4.00;;;4.70;84.00;;;;;;5095535;28;20189;-63
2023/01/07 08:42:13;;;;;;;8.63;4.60;;;4.90;82.80;;;;;;5095552;28;20270;-63
2023/01/07 08:44:42;;;;;;;6.78;4.07;;;5.20;83.30;;;;;;5095379;28;20197;-64
2023/01/07 08:47:10;;;;;;;5.90;4.13;;;5.60;83.20;;;;;;5094925;28;20248;-63
2023/01/07 08:49:37;;;;;;;6.53;4.72;;;6.10;81.90;;;;;;5094771;28;20188;-64
2023/01/07 08:52:04;;;;;;;6.88;3.70;;;6.80;80.30;;;;;;5094482;28;20185;-65
2023/01/07 08:54:32;;;;;;;8.55;4.40;;;7.40;78.20;;;;;;5095018;28;20190;-64
2023/01/07 08:56:59;;;;;;;8.18;4.00;;;8.00;76.70;;;;;;5094874;28;20196;-64
2023/01/07 08:59:26;;;;;;;5.70;3.85;;;8.60;75.10;;;;;;5095297;28;20194;-64
2023/01/07 09:01:54;;;;;;;6.20;4.40;;;9.00;72.30;;;;;;5094361;28;20195;-64
2023/01/07 09:04:22;;;;;;;5.75;4.03;;;9.40;69.90;;;;;;5095449;28;20192;-65
2023/01/07 09:06:49;;;;;;;4.60;3.10;;;9.90;68.50;;;;;;5094088;28;20219;-65
2023/01/07 09:09:16;;;;;;;4.32;3.13;;;10.20;65.20;;;;;;5094880;28;20250;-64
2023/01/07 09:11:44;;;;;;;6.30;4.65;;;10.50;63.50;;;;;;5094151;28;20192;-64
2023/01/07 09:14:11;;;;;;;5.47;3.72;;;10.90;63.70;;;;;;5095101;28;20269;-64
2023/01/07 09:16:43;;;;;;;4.95;3.75;;;11.30;62.60;;;;;;5094340;28;20185;-64
2023/01/07 09:19:11;;;;;;;7.30;3.78;;;11.80;61.50;;;;;;5094670;28;20225;-64
2023/01/07 09:21:38;;;;;;;4.63;3.80;;;12.20;59.50;;;;;;5094520;28;20181;-64
2023/01/07 09:24:06;;;;;;;5.93;3.95;;;12.60;59.40;;;;;;5094753;28;20197;-64
2023/01/07 09:26:33;;;;;;;4.75;3.35;;;12.90;58.20;;;;;;5093977;28;20292;-64
2023/01/07 09:29:00;;;;;;;5.40;3.20;;;13.00;56.70;;;;;;5094597;28;20560;-64
2023/01/07 09:31:28;;;;;;;5.30;3.70;;;13.00;54.90;;;;;;5093950;28;20439;-65
2023/01/07 09:33:55;;;;;;;4.05;2.65;;;12.70;55.00;;;;;;5094178;28;20439;-66
2023/01/07 09:36:23;;;;;;;6.22;4.32;;;12.30;54.50;;;;;;5092984;28;20185;-65
2023/01/07 09:38:51;;;;;;;5.70;3.58;;;12.10;54.50;;;;;;5089700;28;20197;-65
2023/01/07 09:41:39;;;;;;;4.13;2.80;;;11.90;55.50;;;;;;5093124;28;20658;-64
2023/01/07 09:44:19;;;;;;;4.75;3.10;;;11.90;56.40;;;;;;5079600;28;20272;-65
2023/01/07 09:46:51;;;;;;;4.03;2.50;;;12.20;57.30;;;;;;5093390;28;20235;-64
2023/01/07 09:49:19;;;;;;;4.38;3.17;;;12.60;56.10;;;;;;5093428;28;20651;-64
2023/01/07 09:51:53;;;;;;;5.40;2.90;;;12.80;54.00;;;;;;5092446;28;20196;-65
2023/01/07 09:54:29;;;;;;;4.57;3.63;;;12.90;54.60;;;;;;5073586;28;20193;-65
2023/01/07 09:56:56;;;;;;;5.57;3.10;;;13.40;54.00;;;;;;5087165;28;20618;-65
2023/01/07 09:59:25;;;;;;;5.70;4.07;;;13.70;53.50;;;;;;5094235;28;20508;-64
2023/01/07 10:02:00;;;;;;;5.43;3.30;;;14.10;52.40;;;;;;5092419;28;20436;-65
2023/01/07 10:04:35;;;;;;;9.60;4.57;;;14.30;50.80;;;;;;5093051;28;20434;-65
2023/01/07 10:07:15;;;;;;;5.60;4.10;;;14.70;50.20;;;;;;5093422;28;20482;-65
2023/01/07 10:09:55;;;;;;;4.80;3.77;;;15.30;50.50;;;;;;5093302;28;20443;-65
2023/01/07 10:12:33;;;;;;;4.10;2.30;;;15.80;46.00;;;;;;5093844;28;20464;-65
2023/01/07 10:15:22;;;;;;;4.53;3.00;;;15.90;47.10;;;;;;5093093;28;20438;-65
2023/01/07 10:18:20;;;;;;;4.13;3.10;;;16.30;47.10;;;;;;5083219;28;20478;-65
2023/01/07 10:20:54;;;;;;;3.47;2.40;;;16.70;44.00;;;;;;5089055;28;20439;-65
2023/01/07 10:23:28;;;;;;;5.20;3.33;;;17.10;45.40;;;;;;5090776;28;20439;-65
2023/01/07 10:25:57;;;;;;;6.30;3.57;;;17.60;43.70;;;;;;5087192;28;20549;-65
2023/01/07 10:28:32;;;;;;;5.60;3.70;;;17.90;43.30;;;;;;5092018;28;20479;-65
2023/01/07 10:31:01;;;;;;;4.40;3.10;;;18.30;41.80;;;;;;5089873;28;20518;-66
2023/01/07 10:33:31;;;;;;;4.93;2.60;;;18.40;39.80;;;;;;5090609;28;20930;-66
2023/01/07 10:36:08;;;;;;;3.57;2.33;;;18.70;41.80;;;;;;5088349;28;21013;-65
2023/01/07 10:38:41;;;;;;;4.83;2.90;;;19.10;41.90;;;;;;5086634;28;20478;-65
2023/01/07 10:41:17;;;;;;;7.10;3.30;;;19.20;37.80;;;;;;5091726;28;20459;-65
2023/01/07 10:44:00;;;;;;;4.40;3.40;;;19.30;39.70;;;;;;5090574;28;20930;-66
2023/01/07 10:46:42;;;;;;;3.43;2.10;;;19.60;37.90;;;;;;5090648;28;20553;-65
2023/01/07 10:49:30;;;;;;;3.70;2.30;;;19.80;36.80;;;;;;5091162;28;20481;-66
2023/01/07 10:52:17;;;;;;;3.50;2.27;;;19.90;36.50;;;;;;5087344;28;20431;-65
2023/01/07 10:55:13;;;;;;;3.37;2.40;;;19.90;36.70;;;;;;5086952;28;20439;-66
2023/01/07 10:57:40;;;;;;;3.30;2.20;;;20.20;36.20;;;;;;5087030;28;20533;-65
2023/01/07 11:00:13;;;;;;;2.93;2.10;;;20.60;36.20;;;;;;5090747;28;20522;-66
2023/01/07 11:02:44;;;;;;;2.70;1.90;;;20.90;35.70;;;;;;5090129;28;20427;-66
2023/01/07 11:05:12;;;;;;;5.50;2.60;;;21.20;35.00;;;;;;5090636;28;20436;-66
2023/01/07 11:07:43;;;;;;;3.67;2.17;;;21.40;34.40;;;;;;5090375;28;20526;-66
2023/01/07 11:10:17;;;;;;;4.60;2.40;;;21.30;32.80;;;;;;5089871;28;20478;-66
2023/01/07 11:12:48;;;;;;;3.53;2.20;;;21.20;33.20;;;;;;5090637;28;20447;-65
2023/01/07 11:15:20;;;;;;;2.57;1.80;;;21.50;32.80;;;;;;5090528;28;20471;-66
2023/01/07 11:17:52;;;;;;;3.67;2.13;;;21.60;32.00;;;;;;5086644;28;20467;-65
2023/01/07 11:20:45;;;;;;;3.57;2.60;;;21.70;31.00;;;;;;5089743;28;20497;-66
2023/01/07 11:23:27;;;;;;;4.13;2.60;;;21.50;32.00;;;;;;5090116;28;20431;-66
2023/01/07 11:26:09;;;;;;;3.93;3.13;;;21.40;30.80;;;;;;5086348;28;20518;-66
2023/01/07 11:28:40;;;;;;;4.00;2.50;;;21.20;31.00;;;;;;5089746;28;20997;-67
2023/01/07 11:31:07;;;;;;;4.50;2.83;;;21.20;30.00;;;;;;5088905;28;20439;-65
2023/01/07 11:33:39;;;;;;;5.83;3.07;;;21.30;31.50;;;;;;5090633;28;20439;-66
2023/01/07 11:36:07;;;;;;;6.00;3.40;;;21.50;32.10;;;;;;5090462;28;20490;-67
2023/01/07 11:38:37;;;;;;;3.70;2.40;;;21.60;31.10;;;;;;5088844;28;20438;-65
2023/01/07 11:41:19;;;;;;;4.10;2.30;;;21.60;30.30;;;;;;5090547;28;20865;-66
2023/01/07 11:43:49;;;;;;;5.30;2.97;;;21.30;30.40;;;;;;5090779;28;20451;-66
2023/01/07 11:46:18;;;;;;;6.10;4.37;;;21.00;30.60;;;;;;5090330;28;20479;-66
2023/01/07 11:48:51;;;;;;;6.07;2.67;;;21.10;32.00;;;;;;5090392;28;20442;-68
2023/01/07 11:51:20;;;;;;;3.97;2.27;;;21.20;31.00;;;;;;5088256;28;20997;-67
2023/01/07 11:53:54;;;;;;;3.63;1.90;;;21.00;30.60;;;;;;5090611;28;20762;-68
2023/01/07 11:56:27;;;;;;;4.80;2.20;;;21.00;31.00;;;;;;5092733;28;20427;-66
2023/01/07 11:59:23;;;;;;;3.37;1.70;;;21.30;31.90;;;;;;5094628;28;20573;-66
2023/01/07 12:01:51;;;;;;;4.83;2.53;;;21.70;30.80;;;;;;5092685;28;20431;-67
2023/01/07 12:04:23;;;;;;;4.80;3.27;;;21.90;30.60;;;;;;5089169;28;20529;-66
2023/01/07 12:06:53;;;;;;;5.10;2.47;;;21.70;29.50;;;;;;5091488;28;20521;-66
2023/01/07 12:09:38;;;;;;;2.97;1.73;;;21.20;29.60;;;;;;5091269;28;20874;-66
2023/01/07 12:12:35;;;;;;;4.27;2.47;;;20.70;29.10;;;;;;5093291;28;20470;-66
2023/01/07 12:15:05;;;;;;;4.00;2.20;;;20.20;30.30;;;;;;5090543;28;20489;-66
2023/01/07 12:17:34;;;;;;;3.17;1.70;;;20.10;30.70;;;;;;5091493;28;20936;-66
2023/01/07 12:20:30;;;;;;;3.43;1.60;;;20.00;31.00;;;;;;5092016;28;20446;-66
2023/01/07 12:23:12;;;;;;;5.40;1.93;;;19.60;30.90;;;;;;5091362;28;20512;-66
2023/01/07 12:25:52;;;;;;;2.60;1.63;;;18.80;31.60;;;;;;5090778;28;20481;-69
2023/01/07 12:28:39;;;;;;;4.83;2.23;;;18.50;32.30;;;;;;5089505;28;20516;-66
2023/01/07 12:31:31;;;;;;;3.40;1.40;;;18.50;33.10;;;;;;5092644;28;20447;-67
2023/01/07 12:34:21;;;;;;;5.07;2.33;;;18.70;33.40;;;;;;5091671;28;20500;-66
2023/01/07 12:36:59;;;;;;;3.37;1.87;;;19.10;33.20;;;;;;5087506;28;20437;-67
2023/01/07 12:39:31;;;;;;;2.87;1.77;;;19.40;33.10;;;;;;5089925;28;20785;-67
2023/01/07 12:42:03;;;;;;;2.97;1.70;;;19.50;32.40;;;;;;5094609;28;20538;-66
2023/01/07 12:44:31;;;;;;;2.30;1.40;;;19.60;32.70;;;;;;5093798;28;20526;-66
2023/01/07 12:47:06;;;;;;;2.80;1.40;;;19.60;32.20;;;;;;5094263;28;20508;-66
2023/01/07 12:49:39;;;;;;;3.23;1.47;;;19.40;31.90;;;;;;5094407;28;20467;-66
2023/01/07 12:52:12;;;;;;;2.40;1.50;;;19.00;32.70;;;;;;5090333;28;20517;-65
2023/01/07 12:54:47;;;;;;;3.80;2.20;;;18.60;33.80;;;;;;5093862;28;20530;-65
2023/01/07 12:57:19;;;;;;;4.97;1.57;;;18.50;33.80;;;;;;5094043;28;20431;-66
2023/01/07 12:59:57;;;;;;;2.63;1.50;;;18.40;34.10;;;;;;5093927;28;20474;-66
2023/01/07 13:02:34;;;;;;;4.87;1.20;;;18.10;34.20;;;;;;5093778;28;20430;-66
2023/01/07 13:05:10;;;;;;;3.00;1.70;;;18.00;34.40;;;;;;5094195;28;20863;-66
2023/01/07 13:07:44;;;;;;;3.40;1.90;;;17.90;34.00;;;;;;5088761;28;20505;-66
2023/01/07 13:10:18;;;;;;;3.00;1.90;;;17.90;34.40;;;;;;5093904;28;20440;-65
2023/01/07 13:12:47;;;;;;;2.30;1.30;;;17.80;33.60;;;;;;5093120;28;20473;-66
2023/01/07 13:15:20;;;;;;;4.40;1.50;;;17.40;33.90;;;;;;5093477;28;20511;-65